Time;durP1;ratioP1;P1;durP2;ratioP2;P2;SDS_P1;SDS_P2;PMS_P1;PMS_P2;Temp;Humidity;BMP_temperature;BMP_pressure;BME280_temperature;BME280_humidity;BME280_pressure;Samples;Min_cycle;Max_cycle;Signal;HPM_P1;HPM_P2
2023/07/03 00:00:16;;;;;;;9.28;5.20;;;;;;;16.11;56.95;99596.64;1726348;83;25481;-50
2023/07/03 00:02:49;;;;;;;10.38;6.12;;;;;;;16.06;56.96;99599.09;1726598;83;25375;-53
2023/07/03 00:05:17;;;;;;;12.60;5.72;;;;;;;16.01;57.61;99596.07;1726360;83;25715;-52
2023/07/03 00:07:46;;;;;;;8.90;5.15;;;;;;;15.95;57.50;99598.88;1726375;83;25293;-50
2023/07/03 00:10:14;;;;;;;8.78;5.70;;;;;;;15.90;57.49;99598.39;1726534;83;27279;-50
2023/07/03 00:12:42;;;;;;;9.63;5.83;;;;;;;15.86;58.28;99602.42;1726276;83;25606;-52
2023/07/03 00:15:11;;;;;;;8.50;6.03;;;;;;;15.80;58.47;99602.48;1726413;83;25549;-50
2023/07/03 00:17:38;;;;;;;10.23;6.22;;;;;;;15.74;58.53;99609.38;1726460;83;25621;-55
2023/07/03 00:20:11;;;;;;;11.05;5.87;;;;;;;15.66;58.80;99608.42;1726360;83;25463;-51
2023/07/03 00:22:36;;;;;;;10.35;5.50;;;;;;;15.60;58.78;99611.25;1726056;83;27397;-50
2023/07/03 00:25:06;;;;;;;7.97;5.97;;;;;;;15.57;59.26;99610.02;1726280;83;25523;-51
2023/07/03 00:27:33;;;;;;;10.13;5.92;;;;;;;15.51;59.39;99607.38;1701908;83;25355;-54
2023/07/03 00:30:00;;;;;;;9.98;6.45;;;;;;;15.44;59.69;99613.47;1726331;83;25592;-53
2023/07/03 00:32:28;;;;;;;12.35;8.15;;;;;;;15.39;59.68;99620.57;1726365;83;25536;-50
2023/07/03 00:34:55;;;;;;;12.45;6.03;;;;;;;15.34;60.02;99620.85;1726357;83;27249;-51
2023/07/03 00:37:23;;;;;;;9.60;6.22;;;;;;;15.28;60.45;99616.23;1726260;83;25472;-54
2023/07/03 00:39:50;;;;;;;12.82;6.00;;;;;;;15.24;60.08;99624.92;1726441;83;25324;-50
2023/07/03 00:42:17;;;;;;;11.05;6.42;;;;;;;15.20;60.54;99622.67;1726288;83;25675;-51
2023/07/03 00:44:44;;;;;;;13.60;6.58;;;;;;;15.16;60.95;99625.13;1701658;83;25403;-50
2023/07/03 00:47:12;;;;;;;12.35;6.90;;;;;;;15.12;60.74;99627.77;1726420;83;29455;-50
2023/07/03 00:49:39;;;;;;;12.05;6.62;;;;;;;15.07;61.02;99628.05;1726245;83;25368;-50
2023/07/03 00:52:10;;;;;;;8.63;6.62;;;;;;;15.04;61.47;99629.53;1726300;83;25371;-51
2023/07/03 00:54:39;;;;;;;16.23;7.05;;;;;;;15.00;61.87;99632.77;1726328;83;26348;-50
2023/07/03 00:57:13;;;;;;;9.90;6.95;;;;;;;14.97;61.67;99634.83;1726534;83;25329;-52
2023/07/03 00:59:40;;;;;;;9.88;6.05;;;;;;;14.92;62.05;99635.87;1726405;83;27141;-52
2023/07/03 01:02:18;;;;;;;7.75;6.17;;;;;;;14.88;61.92;99639.66;1726282;83;25607;-51
2023/07/03 01:04:54;;;;;;;14.33;6.92;;;;;;;14.85;62.32;99640.39;1725927;82;25325;-52
2023/07/03 01:07:32;;;;;;;12.37;6.58;;;;;;;14.78;62.71;99635.56;1726362;83;25571;-50
2023/07/03 01:10:18;;;;;;;11.50;6.25;;;;;;;14.73;62.69;99636.61;1725799;83;25351;-53
2023/07/03 01:12:51;;;;;;;8.83;6.78;;;;;;;14.69;62.80;99639.02;1701421;83;27348;-50
2023/07/03 01:15:26;;;;;;;8.30;6.45;;;;;;;14.64;63.33;99633.84;1726365;83;25614;-54
2023/07/03 01:17:58;;;;;;;11.18;7.08;;;;;;;14.58;63.09;99636.02;1726450;83;25505;-53
2023/07/03 01:20:30;;;;;;;9.78;7.00;;;;;;;14.54;63.13;99637.84;1701760;83;25703;-51
2023/07/03 01:23:25;;;;;;;13.88;7.28;;;;;;;14.48;63.05;99644.72;1726351;83;25557;-50
2023/07/03 01:25:55;;;;;;;11.75;6.75;;;;;;;14.43;63.27;99638.95;1726342;83;27199;-51
2023/07/03 01:28:25;;;;;;;10.63;7.03;;;;;;;14.36;63.69;99635.48;1726398;83;25456;-52
2023/07/03 01:30:55;;;;;;;10.60;6.95;;;;;;;14.31;63.87;99637.69;1726431;83;25436;-52
2023/07/03 01:33:30;;;;;;;12.37;7.12;;;;;;;14.25;64.12;99639.07;1701521;83;25767;-54
2023/07/03 01:35:59;;;;;;;14.23;6.67;;;;;;;14.18;64.32;99639.12;1726304;83;25527;-50
2023/07/03 01:38:29;;;;;;;10.72;7.55;;;;;;;14.14;64.44;99634.72;1726545;83;27257;-51
2023/07/03 01:40:58;;;;;;;;;;;;;;;14.08;64.86;99640.99;1704086;83;25501;-51
2023/07/03 01:43:27;;;;;;;12.30;7.20;;;;;;;14.04;64.94;99639.31;1726688;83;25563;-54
2023/07/03 01:45:54;;;;;;;15.43;7.95;;;;;;;13.97;65.08;99643.98;1726584;83;34719;-51
2023/07/03 01:48:22;;;;;;;15.35;8.25;;;;;;;13.92;65.33;99645.59;1726492;83;25474;-52
2023/07/03 01:50:49;;;;;;;13.10;7.40;;;;;;;13.87;65.55;99643.91;1725811;83;27207;-50
2023/07/03 01:53:31;;;;;;;14.25;7.33;;;;;;;13.84;65.86;99643.23;1723557;83;25483;-50
2023/07/03 01:56:08;;;;;;;12.98;7.55;;;;;;;13.82;66.05;99645.52;1723640;83;25551;-50
2023/07/03 01:58:47;;;;;;;17.05;7.03;;;;;;;13.79;65.93;99647.02;1723619;83;25763;-51
2023/07/03 02:01:19;;;;;;;13.28;7.45;;;;;;;13.77;65.93;99648.48;1723243;82;25306;-52
2023/07/03 02:03:58;;;;;;;11.35;6.92;;;;;;;13.74;66.33;99653.25;1723503;83;27244;-53
2023/07/03 02:06:33;;;;;;;13.03;7.87;;;;;;;13.70;66.34;99654.51;1723837;83;25314;-51
2023/07/03 02:09:05;;;;;;;9.95;7.10;;;;;;;13.69;66.38;99654.84;1723657;83;25129;-51
2023/07/03 02:11:31;;;;;;;13.05;7.15;;;;;;;13.67;66.54;99655.77;1723587;83;25574;-52
2023/07/03 02:13:59;;;;;;;11.30;7.12;;;;;;;13.64;66.91;99653.19;1697223;83;25384;-52
2023/07/03 02:16:30;;;;;;;14.45;7.67;;;;;;;13.61;66.84;99658.73;1723842;83;27227;-52
2023/07/03 02:18:58;;;;;;;12.45;7.60;;;;;;;13.58;67.18;99653.20;1723683;83;25633;-51
2023/07/03 02:21:28;;;;;;;12.58;7.58;;;;;;;13.56;67.24;99658.19;1723953;83;25372;-55
2023/07/03 02:23:56;;;;;;;14.28;7.80;;;;;;;13.54;66.95;99660.47;1723575;83;26278;-51
2023/07/03 02:26:23;;;;;;;15.72;8.78;;;;;;;13.51;67.52;99662.50;1723663;83;25492;-51
2023/07/03 02:28:50;;;;;;;14.20;7.72;;;;;;;13.49;67.63;99659.34;1723559;83;27190;-55
2023/07/03 02:31:18;;;;;;;14.25;7.65;;;;;;;13.48;67.40;99665.91;1723469;83;25357;-53
2023/07/03 02:33:45;;;;;;;16.60;8.45;;;;;;;13.45;67.80;99666.04;1723638;83;25475;-52
2023/07/03 02:36:13;;;;;;;12.70;7.72;;;;;;;13.42;67.58;99663.43;1723535;83;25620;-52
2023/07/03 02:38:40;;;;;;;20.77;7.83;;;;;;;13.41;67.96;99667.27;1723605;83;25506;-51
2023/07/03 02:41:08;;;;;;;14.63;8.58;;;;;;;13.39;68.13;99668.19;1723539;83;29450;-52
2023/07/03 02:43:35;;;;;;;12.05;7.40;;;;;;;13.37;68.23;99665.02;1723512;83;25998;-51
2023/07/03 02:46:08;;;;;;;14.03;8.03;;;;;;;13.36;68.23;99663.43;1723576;83;25327;-55
2023/07/03 02:48:35;;;;;;;14.75;7.58;;;;;;;13.36;68.66;99664.79;1723526;83;27824;-52
2023/07/03 02:51:03;;;;;;;13.70;7.60;;;;;;;13.35;68.81;99675.99;1723981;83;25322;-54
2023/07/03 02:53:31;;;;;;;13.43;7.50;;;;;;;13.33;68.76;99668.76;1726467;83;27922;-52
2023/07/03 02:55:58;;;;;;;15.23;7.65;;;;;;;13.30;69.22;99671.58;1672126;83;25633;-53
2023/07/03 02:58:25;;;;;;;13.45;8.25;;;;;;;13.28;69.47;99675.20;1726457;83;25393;-52
2023/07/03 03:00:56;;;;;;;10.95;7.72;;;;;;;13.26;69.30;99670.66;1726372;83;27825;-55
2023/07/03 03:03:25;;;;;;;16.17;7.85;;;;;;;13.26;69.30;99676.09;1726428;83;25302;-54
2023/07/03 03:05:52;;;;;;;11.75;8.03;;;;;;;13.25;69.45;99676.67;1726413;83;27235;-51
2023/07/03 03:08:21;;;;;;;11.88;7.97;;;;;;;13.25;69.37;99679.95;1726351;83;25371;-51
2023/07/03 03:10:51;;;;;;;14.80;8.55;;;;;;;13.25;69.69;99682.67;1726509;83;25532;-51
2023/07/03 03:13:18;;;;;;;14.33;8.63;;;;;;;13.23;69.83;99680.87;1726389;83;25633;-52
2023/07/03 03:15:45;;;;;;;14.23;7.65;;;;;;;13.23;70.00;99685.73;1726430;83;25468;-54
2023/07/03 03:18:13;;;;;;;15.23;8.10;;;;;;;13.24;70.02;99687.87;1726428;83;27186;-50
2023/07/03 03:20:40;;;;;;;11.40;7.85;;;;;;;13.23;70.29;99692.52;1726282;83;25497;-51
2023/07/03 03:23:07;;;;;;;17.30;8.53;;;;;;;13.23;70.33;99690.38;1726376;83;25468;-52
2023/07/03 03:25:34;;;;;;;15.23;7.85;;;;;;;13.24;70.40;99685.16;1726480;83;25576;-52
2023/07/03 03:28:01;;;;;;;13.20;8.05;;;;;;;13.23;70.55;99689.80;1726392;83;25309;-51
2023/07/03 03:30:30;;;;;;;18.17;8.65;;;;;;;13.25;70.70;99686.75;1726432;83;29458;-53
2023/07/03 03:32:57;;;;;;;13.00;8.33;;;;;;;13.24;70.60;99696.80;1726290;83;27233;-51
2023/07/03 03:35:25;;;;;;;13.95;7.65;;;;;;;13.26;70.62;99697.27;1726470;83;25511;-49
2023/07/03 03:37:52;;;;;;;12.35;7.83;;;;;;;13.27;70.98;99697.48;1726341;83;25578;-53
2023/07/03 03:40:19;;;;;;;20.68;8.33;;;;;;;13.27;71.10;99693.41;1726453;83;25539;-53
2023/07/03 03:42:46;;;;;;;13.20;7.72;;;;;;;13.28;71.15;99699.66;1726333;83;27193;-50
2023/07/03 03:45:13;;;;;;;15.60;8.10;;;;;;;13.30;71.05;99694.66;1726345;83;25533;-55
2023/07/03 03:47:40;;;;;;;14.13;7.55;;;;;;;13.33;71.35;99696.73;1726388;83;25529;-52
2023/07/03 03:50:09;;;;;;;14.38;7.87;;;;;;;13.37;71.42;99700.91;1726332;83;27847;-51
2023/07/03 03:52:36;;;;;;;19.40;8.47;;;;;;;13.41;71.55;99699.86;1726593;83;25557;-51
2023/07/03 03:55:04;;;;;;;11.63;7.80;;;;;;;13.44;71.51;99697.05;1726359;83;27268;-55
2023/07/03 03:57:32;;;;;;;18.45;8.43;;;;;;;13.47;71.76;99692.84;1726336;83;25480;-51
2023/07/03 03:59:59;;;;;;;16.87;8.98;;;;;;;13.50;71.70;99696.23;1726359;83;25397;-52
2023/07/03 04:02:26;;;;;;;13.03;7.28;;;;;;;13.54;71.96;99695.21;1726349;83;25587;-55
2023/07/03 04:04:53;;;;;;;12.85;8.05;;;;;;;13.60;72.09;99694.39;1726480;83;25479;-54
2023/07/03 04:07:20;;;;;;;16.97;8.50;;;;;;;13.65;72.17;99698.23;1701714;83;27144;-52
2023/07/03 04:09:47;;;;;;;13.68;8.15;;;;;;;13.72;72.10;99697.65;1726336;83;25353;-51
2023/07/03 04:12:14;;;;;;;15.88;8.28;;;;;;;13.79;72.17;99693.22;1726377;83;25349;-53
2023/07/03 04:14:42;;;;;;;14.63;7.37;;;;;;;13.87;72.17;99693.42;1726366;83;25651;-55
2023/07/03 04:17:10;;;;;;;14.38;7.85;;;;;;;13.94;72.09;99688.95;1726465;83;25294;-52
2023/07/03 04:19:37;;;;;;;15.10;7.85;;;;;;;14.04;72.10;99689.03;1726488;83;27336;-51
2023/07/03 04:22:05;;;;;;;13.45;7.58;;;;;;;14.13;72.04;99692.41;1726370;83;25136;-50
2023/07/03 04:24:34;;;;;;;15.78;7.97;;;;;;;14.23;72.35;99695.75;1726371;83;25327;-50
2023/07/03 04:27:02;;;;;;;15.78;7.78;;;;;;;14.32;72.15;99705.34;1726421;83;25642;-52
2023/07/03 04:29:30;;;;;;;12.93;7.67;;;;;;;14.42;71.85;99710.05;1726522;83;25476;-50
2023/07/03 04:31:57;;;;;;;15.70;7.55;;;;;;;14.51;71.61;99706.60;1726395;83;27207;-50
2023/07/03 04:34:24;;;;;;;14.60;7.75;;;;;;;14.57;71.37;99705.19;1726369;83;25746;-49
2023/07/03 04:36:51;;;;;;;12.75;8.18;;;;;;;14.64;71.10;99693.17;1701883;83;25516;-50
2023/07/03 04:39:18;;;;;;;17.48;8.33;;;;;;;14.70;70.93;99687.67;1726431;83;25593;-51
2023/07/03 04:41:46;;;;;;;17.37;8.00;;;;;;;14.77;70.82;99681.61;1726383;83;25338;-52
2023/07/03 04:44:13;;;;;;;10.40;6.83;;;;;;;14.84;70.78;99683.72;1726390;83;27812;-54
2023/07/03 04:46:43;;;;;;;13.38;7.78;;;;;;;14.92;70.85;99690.92;1726288;83;25766;-53
2023/07/03 04:49:11;;;;;;;13.10;7.47;;;;;;;15.00;70.64;99695.39;1726527;83;25463;-50
2023/07/03 04:51:39;;;;;;;13.47;7.63;;;;;;;15.10;70.54;99699.49;1726121;82;26188;-52
2023/07/03 04:54:07;;;;;;;17.45;7.62;;;;;;;15.18;70.36;99697.16;1723571;83;25472;-52
2023/07/03 04:56:34;;;;;;;16.87;7.97;;;;;;;15.27;70.44;99703.22;1697007;83;27446;-59
2023/07/03 04:59:02;;;;;;;9.55;7.03;;;;;;;15.37;70.37;99698.35;1723502;83;27233;-59
2023/07/03 05:01:31;;;;;;;15.25;7.80;;;;;;;15.49;70.35;99709.13;1723483;83;25355;-58
2023/07/03 05:03:58;;;;;;;12.58;7.28;;;;;;;15.58;70.06;99701.55;1723591;83;27770;-52
2023/07/03 05:06:25;;;;;;;16.55;8.48;;;;;;;15.71;69.61;99708.23;1723570;83;25315;-55
2023/07/03 05:08:53;;;;;;;18.30;8.83;;;;;;;15.86;68.99;99715.00;1723600;83;27309;-51
2023/07/03 05:11:20;;;;;;;13.25;8.10;;;;;;;15.99;68.90;99719.75;1723534;83;25529;-52
2023/07/03 05:13:47;;;;;;;14.95;8.23;;;;;;;16.12;68.74;99716.28;1723664;83;25327;-53
2023/07/03 05:16:14;;;;;;;15.58;8.85;;;;;;;16.24;68.13;99718.06;1723532;83;25599;-58
2023/07/03 05:18:41;;;;;;;13.45;7.92;;;;;;;16.35;67.47;99725.11;1697162;83;25392;-52
2023/07/03 05:21:10;;;;;;;16.65;7.85;;;;;;;16.43;66.61;99719.42;1723655;83;27200;-52
2023/07/03 05:23:38;;;;;;;15.85;8.10;;;;;;;16.54;66.95;99714.73;1723650;83;25477;-54
2023/07/03 05:26:05;;;;;;;17.15;8.65;;;;;;;16.67;66.03;99722.15;1723647;83;25374;-51
2023/07/03 05:28:36;;;;;;;15.40;8.53;;;;;;;16.74;66.18;99725.80;1723631;83;25362;-55
2023/07/03 05:31:04;;;;;;;17.80;7.90;;;;;;;16.85;65.17;99721.13;1723694;83;25311;-54
2023/07/03 05:33:31;;;;;;;16.75;8.45;;;;;;;16.97;65.57;99729.93;1723671;83;27812;-55
2023/07/03 05:36:01;;;;;;;17.98;8.18;;;;;;;17.15;64.96;99737.61;1723525;83;25370;-55
2023/07/03 05:38:29;;;;;;;13.32;7.35;;;;;;;17.31;65.05;99736.86;1723656;83;25466;-55
2023/07/03 05:40:57;;;;;;;19.92;8.00;;;;;;;17.48;64.31;99740.23;1723609;83;26163;-53
2023/07/03 05:43:26;;;;;;;18.35;7.85;;;;;;;17.63;63.83;99740.64;1723632;83;25476;-53
2023/07/03 05:45:53;;;;;;;15.18;7.92;;;;;;;17.79;63.19;99734.98;1723706;83;27236;-56
2023/07/03 05:48:21;;;;;;;15.72;7.20;;;;;;;17.94;62.63;99735.98;1723583;83;25416;-55
2023/07/03 05:50:48;;;;;;;14.87;7.78;;;;;;;18.08;62.67;99734.80;1723737;83;25350;-57
2023/07/03 05:53:16;;;;;;;13.22;7.08;;;;;;;18.24;61.96;99727.73;1723628;82;25633;-58
2023/07/03 05:55:43;;;;;;;13.88;7.25;;;;;;;18.39;61.48;99734.72;1723610;83;25530;-56
2023/07/03 05:58:11;;;;;;;16.05;6.90;;;;;;;18.52;60.59;99732.52;1723650;83;27881;-55
2023/07/03 06:00:38;;;;;;;13.58;6.37;;;;;;;18.63;60.25;99741.05;1723590;83;25324;-56
2023/07/03 06:03:05;;;;;;;12.30;6.25;;;;;;;18.74;60.22;99747.98;1723613;83;25480;-55
2023/07/03 06:05:33;;;;;;;12.93;6.28;;;;;;;18.87;60.42;99753.23;1723620;83;25677;-58
2023/07/03 06:08:00;;;;;;;13.68;6.65;;;;;;;19.03;60.66;99755.11;1723662;83;25383;-57
2023/07/03 06:10:28;;;;;;;15.32;6.80;;;;;;;19.16;59.40;99753.66;1723621;83;27782;-58
2023/07/03 06:12:55;;;;;;;18.27;6.85;;;;;;;19.26;59.16;99754.09;1723621;83;25343;-61
2023/07/03 06:15:22;;;;;;;16.75;8.48;;;;;;;19.39;59.29;99752.06;1723713;83;25501;-51
2023/07/03 06:17:49;;;;;;;14.10;7.58;;;;;;;19.50;58.11;99760.34;1723548;83;25617;-52
2023/07/03 06:20:17;;;;;;;12.68;6.40;;;;;;;19.57;56.39;99759.61;1723617;83;25307;-54
2023/07/03 06:22:44;;;;;;;9.23;5.50;;;;;;;19.64;55.30;99759.64;1723512;83;27175;-52
2023/07/03 06:25:11;;;;;;;12.43;5.47;;;;;;;19.71;55.07;99765.16;1723551;83;25686;-55
2023/07/03 06:27:39;;;;;;;14.15;9.58;;;;;;;19.82;55.45;99765.27;1723580;83;25376;-51
2023/07/03 06:30:08;;;;;;;8.78;5.75;;;;;;;19.94;53.57;99760.81;1723565;83;25553;-52
2023/07/03 06:32:37;;;;;;;13.22;5.33;;;;;;;20.06;53.97;99769.30;1723883;83;25483;-49
2023/07/03 06:35:05;;;;;;;12.73;5.67;;;;;;;20.18;53.33;99767.39;1723719;83;27247;-50
2023/07/03 06:37:33;;;;;;;12.13;5.85;;;;;;;20.31;52.97;99769.39;1723549;83;25454;-49
2023/07/03 06:40:01;;;;;;;10.45;5.40;;;;;;;20.41;52.35;99776.06;1723602;83;25356;-49
2023/07/03 06:42:29;;;;;;;10.70;5.27;;;;;;;20.52;51.81;99774.73;1723835;83;25613;-49
2023/07/03 06:44:56;;;;;;;11.60;5.55;;;;;;;20.61;51.09;99776.51;1723824;83;25464;-50
2023/07/03 06:47:23;;;;;;;13.62;5.45;;;;;;;20.67;50.09;99775.56;1723814;83;27276;-49
2023/07/03 06:49:50;;;;;;;11.63;5.37;;;;;;;20.73;48.27;99778.13;1697114;83;25565;-49
2023/07/03 06:52:17;;;;;;;11.08;5.10;;;;;;;20.78;49.10;99777.74;1723857;83;25441;-50
2023/07/03 06:54:47;;;;;;;11.00;5.30;;;;;;;20.88;47.38;99776.19;1726449;83;25576;-48
2023/07/03 06:57:14;;;;;;;8.85;4.55;;;;;;;20.92;47.30;99781.69;1726458;83;25544;-50
2023/07/03 06:59:41;;;;;;;15.40;5.08;;;;;;;20.95;46.73;99781.69;1726479;83;27837;-48
2023/07/03 07:02:08;;;;;;;11.65;5.10;;;;;;;21.00;46.85;99780.52;1726320;83;25333;-49
2023/07/03 07:04:35;;;;;;;10.95;5.00;;;;;;;21.11;47.28;99778.54;1726428;83;25336;-49
2023/07/03 07:07:03;;;;;;;8.88;4.40;;;;;;;21.20;46.87;99776.80;1726376;83;27794;-48
2023/07/03 07:09:31;;;;;;;14.70;4.78;;;;;;;21.29;45.96;99779.92;1726482;83;25330;-48
2023/07/03 07:11:58;;;;;;;9.93;4.47;;;;;;;21.36;46.55;99774.41;1726408;83;27304;-50
2023/07/03 07:14:25;;;;;;;11.63;4.70;;;;;;;21.53;46.23;99781.09;1726357;83;25504;-51
2023/07/03 07:16:52;;;;;;;11.70;4.55;;;;;;;21.62;46.13;99784.23;1726414;83;25359;-48
2023/07/03 07:19:19;;;;;;;9.88;4.85;;;;;;;21.66;44.21;99780.67;1726361;83;25684;-48
2023/07/03 07:21:46;;;;;;;11.48;5.10;;;;;;;21.73;45.48;99787.55;1726485;83;25588;-49
2023/07/03 07:24:20;;;;;;;11.80;5.40;;;;;;;21.85;45.40;99778.08;1726119;83;27200;-49
2023/07/03 07:26:50;;;;;;;11.95;5.17;;;;;;;21.97;44.22;99774.28;1725816;83;25454;-49
2023/07/03 07:29:18;;;;;;;12.55;6.65;;;;;;;22.09;45.02;99785.45;1725724;83;25615;-48
2023/07/03 07:31:46;;;;;;;12.82;4.87;;;;;;;22.22;43.93;99784.43;1726511;83;25645;-50
2023/07/03 07:34:13;;;;;;;13.80;5.25;;;;;;;22.30;44.03;99792.86;1726438;83;25325;-50
2023/07/03 07:36:41;;;;;;;11.80;4.75;;;;;;;22.32;41.21;99786.95;1701694;83;27969;-54
2023/07/03 07:39:08;;;;;;;13.22;5.05;;;;;;;22.33;43.24;99778.28;1725268;83;25666;-49
2023/07/03 07:41:37;;;;;;;9.70;5.45;;;;;;;22.50;42.24;99788.24;1700270;83;25587;-51
2023/07/03 07:44:06;;;;;;;10.53;4.73;;;;;;;22.63;41.18;99779.70;1701621;83;25548;-51
2023/07/03 07:46:36;;;;;;;9.60;4.60;;;;;;;22.68;40.33;99775.14;1726584;83;25481;-51
2023/07/03 07:49:04;;;;;;;9.65;4.75;;;;;;;22.77;39.47;99773.91;1726420;83;27212;-50
2023/07/03 07:51:33;;;;;;;11.90;4.97;;;;;;;22.87;39.80;99783.47;1726461;83;25393;-50
2023/07/03 07:54:03;;;;;;;8.70;5.05;;;;;;;22.98;40.36;99769.59;1724404;83;35159;-52
2023/07/03 07:56:32;;;;;;;11.55;4.55;;;;;;;23.10;39.81;99782.94;1723526;83;25620;-51
2023/07/03 07:58:59;;;;;;;11.03;4.87;;;;;;;23.27;40.28;99771.53;1723693;83;25391;-50
2023/07/03 08:01:27;;;;;;;11.57;4.70;;;;;;;23.48;39.21;99778.84;1723576;83;27203;-50
2023/07/03 08:03:54;;;;;;;9.60;5.55;;;;;;;23.65;40.09;99774.33;1723430;83;25521;-51
2023/07/03 08:06:21;;;;;;;9.68;4.72;;;;;;;23.90;39.01;99786.32;1723521;83;25534;-51
2023/07/03 08:08:52;;;;;;;8.40;4.67;;;;;;;23.94;36.84;99774.05;1696661;83;25544;-52
2023/07/03 08:11:19;;;;;;;12.03;6.45;;;;;;;24.03;37.97;99780.45;1723572;83;25482;-53
2023/07/03 08:13:47;;;;;;;55.20;51.70;;;;;;;24.28;37.52;99775.98;1723516;83;29489;-52
2023/07/03 08:16:15;;;;;;;28.02;25.30;;;;;;;24.42;36.31;99773.63;1723443;83;25541;-52
2023/07/03 08:18:43;;;;;;;71.22;66.30;;;;;;;24.38;35.68;99771.50;1723545;83;25497;-54
2023/07/03 08:21:10;;;;;;;46.98;43.73;;;;;;;24.38;36.01;99765.39;1723495;83;25614;-52
2023/07/03 08:23:37;;;;;;;70.97;65.83;;;;;;;24.43;36.11;99764.92;1723510;83;25345;-54
2023/07/03 08:26:05;;;;;;;67.50;63.02;;;;;;;24.57;33.87;99768.72;1696920;83;26989;-52
2023/07/03 08:28:32;;;;;;;72.17;67.25;;;;;;;24.56;34.79;99772.67;1723571;83;25511;-54
2023/07/03 08:31:00;;;;;;;67.40;63.15;;;;;;;24.70;35.47;99768.91;1723537;83;25363;-59
2023/07/03 08:33:27;;;;;;;65.60;61.33;;;;;;;24.98;35.52;99767.69;1723678;83;26196;-53
2023/07/03 08:35:55;;;;;;;69.95;65.22;;;;;;;25.33;35.47;99763.53;1723630;83;25350;-60
2023/07/03 08:38:22;;;;;;;65.72;61.68;;;;;;;25.76;34.90;99763.94;1723575;83;27995;-59
2023/07/03 08:40:57;;;;;;;69.20;64.65;;;;;;;26.08;33.38;99767.47;1723458;83;25655;-54
2023/07/03 08:43:36;;;;;;;69.17;64.67;;;;;;;26.18;33.25;99761.53;1723214;83;25353;-51
2023/07/03 08:46:07;;;;;;;11.97;10.98;;;;;;;26.45;33.37;99765.50;1723719;83;25670;-52
2023/07/03 08:48:36;;;;;;;8.73;4.85;;;;;;;26.61;32.81;99761.95;1723754;83;25377;-52
2023/07/03 08:51:08;;;;;;;10.72;4.65;;;;;;;26.60;32.78;99771.50;1723819;83;33042;-52
2023/07/03 08:53:39;;;;;;;9.53;4.97;;;;;;;26.71;31.22;99779.59;1724730;83;27177;-55
2023/07/03 08:56:15;;;;;;;10.80;5.17;;;;;;;26.43;31.56;99760.38;1726565;83;25449;-57
2023/07/03 08:58:45;;;;;;;11.20;5.10;;;;;;;26.18;31.33;99768.46;1726523;83;25617;-51
2023/07/03 09:01:24;;;;;;;12.15;5.58;;;;;;;25.97;31.83;99768.31;1725507;83;25331;-52
2023/07/03 09:04:27;;;;;;;10.18;4.92;;;;;;;25.85;32.21;99774.64;1701846;83;27261;-53
2023/07/03 09:06:59;;;;;;;8.85;5.28;;;;;;;25.85;32.21;99774.64;1726558;83;25500;-51
2023/07/03 09:09:53;;;;;;;13.98;6.03;;;;;;;25.94;31.88;99774.67;1726609;83;25356;-55
2023/07/03 09:12:40;;;;;;;11.45;6.17;;;;;;;25.98;32.52;99770.63;1696887;84;27286;-51
2023/07/03 09:15:18;;;;;;;11.12;5.65;;;;;;;26.30;32.06;99770.56;1696108;84;25458;-54
2023/07/03 09:17:47;;;;;;;15.28;6.78;;;;;;;26.31;30.83;99784.61;1696931;84;27163;-52
2023/07/03 09:20:16;;;;;;;12.47;5.97;;;;;;;26.25;31.78;99781.55;1696630;84;25607;-56
2023/07/03 09:22:47;;;;;;;;;;;;;;;26.11;30.89;99783.86;1699268;84;25484;-52
2023/07/03 09:25:29;;;;;;;10.00;5.72;;;;;;;25.80;31.41;99779.29;1696825;84;25692;-56
2023/07/03 09:27:59;;;;;;;11.97;6.72;;;;;;;25.71;32.30;99770.16;1696391;83;25657;-52
2023/07/03 09:30:26;;;;;;;13.03;6.35;;;;;;;25.69;32.53;99775.94;1696696;84;29313;-53
2023/07/03 09:32:54;;;;;;;13.85;6.33;;;;;;;25.71;32.49;99770.75;1696606;84;25405;-55
2023/07/03 09:35:23;;;;;;;10.23;6.12;;;;;;;25.57;32.10;99773.19;1696791;84;25458;-54
2023/07/03 09:37:53;;;;;;;;;;;;;;;25.61;32.15;99779.45;1699249;84;26179;-56
2023/07/03 09:40:28;;;;;;;13.68;6.00;;;;;;;25.95;32.73;99774.28;1675519;81;25361;-54
2023/07/03 09:42:56;;;;;;;12.23;5.87;;;;;;;26.38;32.79;99769.81;1685261;85;27504;-56
2023/07/03 09:45:30;;;;;;;14.35;6.28;;;;;;;26.57;31.40;99775.91;1685761;85;25659;-52
2023/07/03 09:48:02;;;;;;;11.25;6.15;;;;;;;26.39;31.94;99771.36;1687502;85;25573;-57
2023/07/03 09:50:39;;;;;;;8.78;5.12;;;;;;;26.58;31.75;99769.75;1687136;85;25499;-50
2023/07/03 09:53:07;;;;;;;11.53;6.15;;;;;;;27.02;30.81;99762.78;1687471;85;25534;-53
2023/07/03 09:58:14;;;;;;;12.20;5.80;;;;;;;26.89;30.98;99763.30;1762604;81;25452;-54
2023/07/03 10:00:51;;;;;;;12.45;6.12;;;;;;;27.01;31.15;99759.06;1762148;81;25472;-51
2023/07/03 10:03:29;;;;;;;10.98;6.03;;;;;;;27.23;30.43;99777.95;1762746;81;25539;-51
2023/07/03 10:06:03;;;;;;;12.20;6.45;;;;;;;27.20;30.53;99753.98;1762801;81;25450;-55
2023/07/03 10:08:30;;;;;;;12.07;6.28;;;;;;;27.00;30.80;99760.26;1762770;81;27741;-52
2023/07/03 10:11:00;;;;;;;12.70;6.87;;;;;;;27.15;30.92;99746.81;1762647;81;25399;-53
2023/07/03 10:13:38;;;;;;;11.70;6.40;;;;;;;27.05;31.16;99746.48;1736948;81;25530;-53
2023/07/03 10:16:08;;;;;;;12.00;7.58;;;;;;;27.16;31.20;99745.61;1762748;81;25669;-52
2023/07/03 10:18:40;;;;;;;15.13;6.65;;;;;;;27.09;31.11;99738.83;1762790;81;25537;-60
2023/07/03 10:21:11;;;;;;;14.07;8.48;;;;;;;26.89;30.47;99755.59;1762674;81;27774;-58
2023/07/03 10:23:41;;;;;;;10.95;6.75;;;;;;;26.79;30.56;99746.31;1736572;81;25367;-56
2023/07/03 10:26:26;;;;;;;13.88;6.75;;;;;;;26.72;30.90;99749.27;1762769;81;25340;-56
2023/07/03 10:29:17;;;;;;;11.48;6.40;;;;;;;26.79;31.03;99744.31;1762697;81;25706;-57
2023/07/03 10:32:05;;;;;;;13.18;6.83;;;;;;;27.06;31.64;99749.44;1754097;81;25334;-60
2023/07/03 10:35:03;;;;;;;13.28;6.45;;;;;;;27.11;30.74;99758.00;1762783;81;27251;-54
2023/07/03 10:37:37;;;;;;;11.93;7.05;;;;;;;27.27;31.00;99739.77;1762834;81;33073;-57
2023/07/03 10:40:17;;;;;;;14.58;6.75;;;;;;;27.93;30.67;99735.59;1761888;81;25484;-57
2023/07/03 10:42:53;;;;;;;13.83;6.55;;;;;;;27.93;30.32;99743.16;1758570;81;25609;-48
2023/07/03 10:45:22;;;;;;;17.23;6.67;;;;;;;27.97;31.09;99739.66;1762763;81;25496;-48
2023/07/03 10:47:55;;;;;;;;;;;;;;;28.09;30.63;99735.34;1765350;81;27216;-48
2023/07/03 10:50:28;;;;;;;12.15;6.50;;;;;;;28.22;31.18;99737.52;1762747;81;25626;-48
2023/07/03 10:53:21;;;;;;;14.58;6.72;;;;;;;28.51;28.95;99743.59;1760778;81;25483;-49
2023/07/03 10:56:09;;;;;;;11.73;6.53;;;;;;;28.63;29.98;99737.89;1762647;81;25682;-49
2023/07/03 10:58:50;;;;;;;15.30;7.42;;;;;;;28.73;29.32;99743.72;1672933;85;25504;-49
2023/07/03 11:01:35;;;;;;;11.43;7.30;;;;;;;28.45;29.34;99734.23;1672905;85;27233;-48
2023/07/03 11:04:41;;;;;;;11.40;7.40;;;;;;;28.47;29.45;99727.64;1663490;85;25526;-49
2023/07/03 11:07:14;;;;;;;11.63;6.50;;;;;;;28.40;29.92;99720.89;1645029;87;25586;-48
2023/07/03 11:10:09;;;;;;;12.55;6.70;;;;;;;28.54;29.94;99719.66;1645462;87;25590;-48
2023/07/03 11:13:14;;;;;;;11.38;7.03;;;;;;;28.85;29.90;99721.27;1645601;87;25607;-49
2023/07/03 11:16:11;;;;;;;10.90;6.95;;;;;;;28.68;29.89;99728.98;1645767;87;27203;-48
2023/07/03 11:19:04;;;;;;;13.40;6.95;;;;;;;28.65;29.11;99727.85;1645752;87;25814;-49
2023/07/03 11:21:43;;;;;;;10.40;6.58;;;;;;;28.54;30.00;99728.80;1644914;87;25603;-48
2023/07/03 11:24:51;;;;;;;13.35;7.40;;;;;;;28.71;29.67;99723.91;1645710;87;25727;-49
2023/07/03 11:27:28;;;;;;;;;;;;;;;28.50;29.40;99726.14;1648014;87;25404;-49
2023/07/03 11:29:55;;;;;;;15.13;7.28;;;;;;;28.04;28.71;99728.31;1645656;87;27879;-49
2023/07/03 11:32:23;;;;;;;14.35;6.97;;;;;;;27.61;29.74;99726.76;1645468;87;25716;-49
2023/07/03 11:34:51;;;;;;;9.03;6.58;;;;;;;27.68;30.57;99724.39;1645056;87;25435;-50
2023/07/03 11:37:43;;;;;;;11.08;6.62;;;;;;;27.76;30.58;99716.03;1621002;88;25686;-51
2023/07/03 11:40:34;;;;;;;10.82;6.92;;;;;;;27.77;30.16;99720.38;1612028;89;25567;-50
2023/07/03 11:43:41;;;;;;;9.73;6.75;;;;;;;27.69;30.97;99726.73;1660780;84;27296;-50
2023/07/03 11:46:23;;;;;;;12.43;8.43;;;;;;;27.94;30.44;99719.09;1699046;84;25708;-49